createdAt,value
2019-03-01T00:07:45.798Z,3.86
2019-03-01T00:17:45.748Z,3.68
2019-03-01T00:27:45.838Z,3.55
2019-03-01T00:37:45.750Z,3.74
2019-03-01T00:47:45.929Z,3.15
2019-03-01T00:57:45.812Z,3.13
2019-03-01T01:07:45.715Z,2.64
2019-03-01T01:17:45.847Z,3.01
2019-03-01T01:27:45.758Z,3.41
2019-03-01T01:37:45.779Z,3.35
2019-03-01T01:47:45.784Z,3.27
2019-03-01T01:57:45.971Z,2.89
2019-03-01T02:07:45.786Z,2.67
2019-03-01T02:17:45.735Z,3.33
2019-03-01T02:37:51.376Z,2.57
2019-03-01T02:47:51.067Z,2.79
2019-03-01T02:57:51.027Z,2.78
2019-03-01T03:07:51.031Z,2.53
2019-03-01T03:17:52.087Z,3.02
2019-03-01T03:27:51.013Z,2.57
2019-03-01T03:37:58.364Z,2.76
2019-03-01T03:47:52.495Z,3.30
2019-03-01T03:57:52.095Z,3.64
2019-03-01T04:07:51.171Z,3.01
2019-03-01T04:17:51.116Z,2.43
2019-03-01T04:27:53.231Z,2.28
2019-03-01T04:37:51.028Z,2.09
2019-03-01T04:47:51.070Z,2.38
2019-03-01T04:57:51.131Z,1.82
2019-03-01T05:07:51.111Z,2.12
2019-03-01T05:17:51.051Z,1.91
2019-03-01T05:27:51.092Z,1.70
2019-03-01T05:37:51.068Z,1.84
2019-03-01T05:47:51.020Z,1.98
2019-03-01T05:57:51.109Z,1.86
2019-03-01T06:07:51.100Z,1.24
2019-03-01T06:17:51.352Z,1.40
2019-03-01T06:27:51.271Z,1.11
2019-03-01T06:37:51.113Z,0.79
2019-03-01T06:47:51.029Z,0.79
2019-03-01T06:57:51.086Z,0.79
2019-03-01T07:07:51.212Z,0.81
2019-03-01T07:17:51.194Z,0.97
2019-03-01T07:27:51.009Z,0.63
2019-03-01T07:37:51.105Z,0.94
2019-03-01T07:47:52.511Z,0.92
2019-03-01T07:57:51.059Z,1.08
2019-03-01T08:07:56.125Z,1.35
2019-03-01T08:17:51.073Z,1.28
2019-03-01T08:27:51.193Z,1.50
2019-03-01T08:37:53.513Z,1.23
2019-03-01T08:47:51.136Z,1.25
2019-03-01T08:57:51.411Z,1.21
2019-03-01T09:07:51.013Z,1.49
2019-03-01T09:17:54.801Z,2.44
2019-03-01T09:27:50.997Z,1.59
2019-03-01T09:37:51.011Z,1.63
2019-03-01T09:58:00.854Z,1.38
2019-03-01T10:07:59.756Z,1.53
2019-03-01T10:17:59.913Z,1.44
2019-03-01T10:27:59.783Z,1.39
2019-03-01T10:37:59.658Z,1.56
2019-03-01T10:47:59.798Z,1.23
2019-03-01T10:57:59.694Z,1.47
2019-03-01T11:07:59.709Z,1.03
2019-03-01T11:18:01.306Z,1.08
2019-03-01T11:27:59.945Z,1.21
2019-03-01T11:58:24.634Z,1.20
2019-03-01T12:08:28.052Z,0.95
2019-03-01T12:18:24.614Z,0.61
2019-03-01T12:28:24.678Z,0.80
2019-03-01T12:38:24.630Z,0.35
2019-03-01T12:48:24.823Z,0.47
2019-03-01T12:58:24.611Z,1.17
2019-03-01T13:08:24.778Z,0.57
2019-03-01T13:18:24.569Z,0.86
2019-03-01T13:28:24.740Z,0.85
2019-03-01T13:38:24.747Z,0.47
2019-03-01T13:48:26.549Z,0.86
2019-03-01T13:58:27.715Z,0.71
2019-03-01T14:08:26.843Z,0.33
2019-03-01T14:18:24.662Z,0.93
2019-03-01T14:28:24.565Z,0.66
2019-03-01T14:38:26.789Z,0.58
2019-03-01T14:48:24.592Z,0.50
2019-03-01T14:58:25.658Z,0.90
2019-03-01T15:08:24.640Z,0.94
2019-03-01T15:18:28.987Z,1.14
2019-03-01T15:28:25.943Z,1.14
2019-03-01T15:38:27.570Z,0.75
2019-03-01T15:58:33.203Z,0.91
2019-03-01T16:08:31.008Z,1.16
2019-03-01T16:18:35.224Z,1.31
2019-03-01T16:28:31.466Z,0.98
2019-03-01T16:38:40.428Z,1.58
2019-03-01T16:48:31.197Z,1.20
2019-03-01T16:58:31.003Z,1.22
2019-03-01T17:08:31.848Z,0.79
2019-03-01T17:18:30.972Z,0.72
2019-03-01T17:28:31.886Z,1.30
2019-03-01T17:38:32.291Z,1.78
2019-03-01T17:48:30.986Z,1.16
2019-03-01T17:58:31.086Z,1.10
2019-03-01T18:08:30.992Z,1.04
2019-03-01T18:18:32.522Z,1.38
2019-03-01T18:28:31.357Z,0.93
2019-03-01T18:38:31.562Z,1.06
2019-03-01T18:48:30.994Z,0.94
2019-03-01T18:58:30.940Z,0.72
2019-03-01T19:08:30.977Z,0.83
2019-03-01T19:18:31.217Z,0.94
2019-03-01T19:28:32.462Z,1.27
2019-03-01T19:38:30.970Z,1.23
2019-03-01T19:48:34.489Z,1.65
2019-03-01T19:58:30.978Z,1.65
2019-03-01T20:08:30.947Z,1.03
2019-03-01T20:18:30.948Z,1.02
2019-03-01T20:28:32.173Z,1.12
2019-03-01T20:38:30.936Z,1.04
2019-03-01T20:48:32.253Z,1.38
2019-03-01T20:58:30.929Z,0.98
2019-03-01T21:08:30.889Z,1.38
2019-03-01T21:18:34.043Z,1.48
2019-03-01T21:28:33.672Z,1.19
2019-03-01T21:38:31.000Z,0.83
2019-03-01T21:48:30.836Z,1.32
2019-03-01T21:58:30.942Z,1.56
2019-03-01T22:08:30.920Z,1.58
2019-03-01T22:18:30.912Z,1.89
2019-03-01T22:28:32.716Z,1.91
2019-03-01T22:38:30.904Z,0.86
2019-03-01T22:48:30.871Z,1.81
2019-03-01T22:58:32.712Z,1.77
2019-03-01T23:08:31.773Z,1.84
2019-03-01T23:18:31.079Z,1.72
2019-03-01T23:28:30.923Z,2.31
2019-03-01T23:38:32.564Z,1.39
2019-03-01T23:48:30.971Z,1.41
2019-03-01T23:58:30.919Z,2.03
